createdAt,value
2023-01-05T00:01:40.158Z,2.80
2023-01-05T00:04:10.239Z,2.67
2023-01-05T00:06:39.609Z,3.07
2023-01-05T00:09:08.513Z,2.80
2023-01-05T00:11:54.973Z,3.13
2023-01-05T00:14:42.834Z,2.67
2023-01-05T00:17:30.087Z,2.50
2023-01-05T00:20:18.171Z,2.33
2023-01-05T00:22:48.543Z,3.17
2023-01-05T00:25:17.995Z,3.37
2023-01-05T00:27:47.969Z,2.53
2023-01-05T00:30:17.512Z,2.73
2023-01-05T00:32:46.154Z,3.03
2023-01-05T00:35:16.647Z,3.20
2023-01-05T00:37:45.616Z,2.87
2023-01-05T00:40:15.141Z,3.27
2023-01-05T00:42:43.886Z,2.40
2023-01-05T00:45:13.210Z,2.60
2023-01-05T00:47:41.769Z,3.00
2023-01-05T00:50:11.101Z,2.50
2023-01-05T00:52:41.020Z,2.67
2023-01-05T00:55:09.900Z,3.00
2023-01-05T00:57:38.527Z,2.97
2023-01-05T01:00:07.998Z,3.53
2023-01-05T01:02:36.593Z,2.70
2023-01-05T01:05:05.156Z,2.80
2023-01-05T01:07:33.759Z,2.93
2023-01-05T01:10:03.634Z,2.80
2023-01-05T01:12:32.237Z,3.17
2023-01-05T01:15:00.814Z,3.40
2023-01-05T01:17:29.442Z,3.20
2023-01-05T01:19:57.945Z,2.63
2023-01-05T01:22:26.565Z,2.57
2023-01-05T01:24:55.219Z,2.97
2023-01-05T01:27:25.196Z,2.67
2023-01-05T01:29:53.785Z,2.73
2023-01-05T01:32:24.397Z,2.33
2023-01-05T01:34:55.060Z,3.20
2023-01-05T01:37:23.680Z,2.93
2023-01-05T01:39:52.247Z,2.40
2023-01-05T01:42:22.889Z,3.00
2023-01-05T01:45:02.767Z,3.00
2023-01-05T01:47:36.067Z,3.07
2023-01-05T01:50:08.421Z,2.60
2023-01-05T01:52:37.496Z,3.37
2023-01-05T01:55:07.163Z,3.13
2023-01-05T01:57:36.232Z,2.17
2023-01-05T02:00:07.404Z,3.07
2023-01-05T02:02:36.376Z,2.33
2023-01-05T02:05:06.146Z,3.13
2023-01-05T02:07:35.616Z,3.07
2023-01-05T02:10:04.380Z,2.70
2023-01-05T02:12:39.836Z,3.07
2023-01-05T02:15:15.686Z,2.70
2023-01-05T02:17:48.378Z,3.00
2023-01-05T02:20:32.295Z,3.47
2023-01-05T02:23:27.866Z,3.20
2023-01-05T02:26:17.301Z,2.83
2023-01-05T02:28:53.851Z,3.23
2023-01-05T02:31:24.604Z,3.47
2023-01-05T02:34:02.043Z,2.50
2023-01-05T02:36:31.795Z,3.03
2023-01-05T02:39:03.264Z,3.20
2023-01-05T02:41:34.380Z,2.83
2023-01-05T02:44:03.394Z,2.70
2023-01-05T02:46:33.307Z,3.60
2023-01-05T02:49:03.177Z,3.17
2023-01-05T02:51:33.382Z,3.23
2023-01-05T02:54:03.720Z,2.87
2023-01-05T02:56:35.019Z,3.03
2023-01-05T02:59:04.641Z,3.27
2023-01-05T03:01:36.275Z,3.90
2023-01-05T03:04:07.248Z,3.60
2023-01-05T03:06:38.708Z,3.47
2023-01-05T03:09:07.943Z,3.80
2023-01-05T03:11:57.336Z,3.53
2023-01-05T03:14:29.378Z,3.40
2023-01-05T03:17:01.151Z,3.87
2023-01-05T03:19:40.455Z,3.30
2023-01-05T03:22:30.285Z,3.33
2023-01-05T03:25:16.700Z,3.20
2023-01-05T03:28:03.950Z,3.50
2023-01-05T03:30:54.023Z,3.33
2023-01-05T03:33:45.149Z,3.43
2023-01-05T03:36:14.774Z,3.60
2023-01-05T03:38:45.060Z,3.47
2023-01-05T03:41:15.195Z,3.53
2023-01-05T03:43:44.441Z,3.33
2023-01-05T03:46:13.600Z,3.70
2023-01-05T03:48:43.606Z,3.70
2023-01-05T03:51:12.280Z,3.77
2023-01-05T03:53:40.921Z,3.00
2023-01-05T03:56:09.477Z,3.83
2023-01-05T03:58:38.108Z,3.53
2023-01-05T04:01:07.163Z,3.43
2023-01-05T04:03:36.175Z,4.07
2023-01-05T04:06:06.313Z,3.50
2023-01-05T04:08:34.871Z,3.23
2023-01-05T04:11:12.151Z,4.13
2023-01-05T04:13:40.720Z,3.83
2023-01-05T04:16:09.892Z,3.60
2023-01-05T04:18:38.686Z,3.37
2023-01-05T04:21:08.833Z,3.67
2023-01-05T04:23:37.510Z,3.40
2023-01-05T04:26:06.312Z,3.60
2023-01-05T04:28:35.066Z,3.97
2023-01-05T04:31:03.728Z,3.97
2023-01-05T04:33:32.399Z,3.47
2023-01-05T04:36:01.010Z,3.57
2023-01-05T04:38:30.885Z,3.40
2023-01-05T04:40:59.534Z,3.57
2023-01-05T04:43:28.110Z,3.27
2023-01-05T04:45:56.846Z,3.50
2023-01-05T04:48:25.436Z,3.40
2023-01-05T04:50:55.104Z,3.60
2023-01-05T04:53:24.193Z,3.13
2023-01-05T04:55:54.134Z,3.10
2023-01-05T04:58:22.775Z,3.23
2023-01-05T05:00:51.338Z,4.00
2023-01-05T05:03:19.963Z,3.40
2023-01-05T05:05:48.615Z,3.33
2023-01-05T05:08:17.210Z,3.70
2023-01-05T05:10:45.886Z,3.60
2023-01-05T05:13:15.824Z,3.03
2023-01-05T05:15:46.092Z,3.33
2023-01-05T05:18:14.817Z,3.53
2023-01-05T05:20:44.446Z,3.63
2023-01-05T05:23:13.032Z,3.33
2023-01-05T05:25:41.573Z,3.83
2023-01-05T05:28:10.193Z,3.63
2023-01-05T05:30:40.296Z,3.40
2023-01-05T05:33:08.815Z,4.00
2023-01-05T05:35:37.418Z,3.43
2023-01-05T05:38:06.204Z,3.20
2023-01-05T05:40:34.797Z,3.17
2023-01-05T05:43:03.336Z,4.03
2023-01-05T05:45:31.932Z,4.00
2023-01-05T05:48:02.157Z,3.67
2023-01-05T05:50:30.772Z,3.67
2023-01-05T05:52:59.370Z,3.97
2023-01-05T05:55:27.975Z,3.27
2023-01-05T05:57:56.585Z,3.83
2023-01-05T06:00:25.225Z,3.43
2023-01-05T06:02:54.163Z,3.60
2023-01-05T06:05:24.272Z,3.30
2023-01-05T06:07:52.851Z,3.60
2023-01-05T06:10:21.547Z,4.17
2023-01-05T06:12:50.199Z,4.27
2023-01-05T06:15:18.762Z,3.90
2023-01-05T06:17:48.393Z,3.77
2023-01-05T06:20:17.495Z,4.00
2023-01-05T06:22:47.403Z,4.00
2023-01-05T06:25:16.008Z,4.07
2023-01-05T06:27:44.611Z,3.83
2023-01-05T06:30:13.687Z,4.33
2023-01-05T06:32:42.249Z,3.40
2023-01-05T06:35:11.114Z,3.63
2023-01-05T06:37:39.867Z,3.77
2023-01-05T06:40:11.492Z,4.20
2023-01-05T06:42:40.057Z,5.40
2023-01-05T06:45:09.615Z,4.30
2023-01-05T06:47:38.263Z,4.43
2023-01-05T06:50:07.161Z,4.33
2023-01-05T06:52:39.783Z,4.10
2023-01-05T06:55:10.690Z,3.67
2023-01-05T06:57:39.502Z,3.77
2023-01-05T07:00:09.478Z,3.80
2023-01-05T07:02:38.142Z,5.20
2023-01-05T07:05:07.055Z,4.23
2023-01-05T07:07:35.638Z,4.27
2023-01-05T07:10:04.301Z,4.10
2023-01-05T07:12:34.266Z,3.97
2023-01-05T07:15:02.854Z,4.30
2023-01-05T07:17:31.478Z,4.17
2023-01-05T07:20:00.108Z,4.40
2023-01-05T07:22:30.789Z,4.27
2023-01-05T07:24:59.612Z,3.60
2023-01-05T07:27:28.212Z,5.37
2023-01-05T07:29:58.123Z,5.13
2023-01-05T07:32:26.705Z,4.03
2023-01-05T07:34:56.107Z,3.63
2023-01-05T07:37:25.638Z,3.90
2023-01-05T07:39:54.247Z,3.63
2023-01-05T07:42:22.811Z,3.93
2023-01-05T07:44:51.746Z,5.03
2023-01-05T07:47:22.584Z,3.87
2023-01-05T07:49:51.216Z,4.63
2023-01-05T07:52:19.802Z,4.57
2023-01-05T07:54:48.477Z,4.43
2023-01-05T07:57:17.004Z,4.40
2023-01-05T07:59:45.556Z,4.03
2023-01-05T08:02:14.295Z,4.07
2023-01-05T08:04:44.272Z,4.57
2023-01-05T08:07:14.834Z,4.43
2023-01-05T08:10:01.047Z,4.17
2023-01-05T08:12:30.832Z,4.60
2023-01-05T08:14:59.426Z,4.47
2023-01-05T08:17:28.028Z,4.40
2023-01-05T08:19:57.969Z,4.77
2023-01-05T08:22:26.625Z,4.30
2023-01-05T08:24:55.181Z,5.57
2023-01-05T08:27:24.069Z,4.70
2023-01-05T08:29:52.706Z,4.63
2023-01-05T08:32:21.253Z,4.20
2023-01-05T08:34:55.233Z,3.67
2023-01-05T08:37:25.541Z,4.47
2023-01-05T08:39:54.155Z,4.60
2023-01-05T08:42:37.323Z,4.50
2023-01-05T08:45:06.209Z,4.50
2023-01-05T08:47:34.832Z,5.33
2023-01-05T08:50:03.466Z,4.70
2023-01-05T08:52:33.423Z,4.40
2023-01-05T08:55:02.105Z,4.20
2023-01-05T08:57:31.685Z,4.37
2023-01-05T09:00:00.276Z,4.73
2023-01-05T09:02:29.034Z,4.67
2023-01-05T09:04:57.632Z,4.47
2023-01-05T09:07:28.284Z,4.40
2023-01-05T09:09:58.240Z,4.43
2023-01-05T09:12:32.772Z,4.70
2023-01-05T09:15:01.900Z,5.23
2023-01-05T09:17:30.444Z,5.23
2023-01-05T09:19:59.071Z,4.33
2023-01-05T09:22:27.624Z,4.07
2023-01-05T09:24:57.522Z,4.20
2023-01-05T09:27:26.129Z,4.60
2023-01-05T09:29:54.682Z,4.63
2023-01-05T09:32:24.041Z,4.97
2023-01-05T09:34:52.633Z,5.03
2023-01-05T09:37:21.177Z,4.67
2023-01-05T09:39:50.441Z,4.23
2023-01-05T09:42:22.502Z,4.00
2023-01-05T09:44:58.389Z,4.13
2023-01-05T09:47:28.997Z,4.20
2023-01-05T09:49:58.499Z,4.20
2023-01-05T09:52:29.446Z,4.10
2023-01-05T09:55:01.591Z,4.47
2023-01-05T09:57:31.967Z,4.57
2023-01-05T10:00:02.384Z,4.90
2023-01-05T10:02:33.920Z,4.57
2023-01-05T10:05:05.260Z,4.20
2023-01-05T10:07:39.152Z,4.27
2023-01-05T10:10:09.977Z,3.60
2023-01-05T10:13:01.474Z,4.20
2023-01-05T10:15:32.048Z,3.73
2023-01-05T10:18:01.694Z,4.33
2023-01-05T10:20:40.438Z,4.27
2023-01-05T10:23:13.231Z,4.30
2023-01-05T10:25:45.857Z,4.73
2023-01-05T10:28:23.247Z,4.23
2023-01-05T10:30:56.084Z,3.27
2023-01-05T10:33:40.318Z,3.63
2023-01-05T10:36:19.338Z,4.30
2023-01-05T10:39:01.273Z,4.00
2023-01-05T10:41:32.678Z,4.20
2023-01-05T10:44:34.162Z,3.90
2023-01-05T10:47:03.130Z,3.40
2023-01-05T10:49:32.926Z,3.67
2023-01-05T10:52:02.392Z,4.30
2023-01-05T10:54:35.659Z,4.77
2023-01-05T10:57:28.858Z,3.73
2023-01-05T11:00:03.032Z,4.05
2023-01-05T11:02:35.400Z,4.00
2023-01-05T11:05:05.846Z,4.10
2023-01-05T11:07:34.931Z,4.03
2023-01-05T11:10:03.518Z,4.47
2023-01-05T11:12:32.251Z,4.30
2023-01-05T11:15:02.546Z,4.07
2023-01-05T11:17:31.669Z,5.13
2023-01-05T11:20:00.351Z,4.03
2023-01-05T11:22:33.185Z,4.27
2023-01-05T11:25:15.427Z,4.17
2023-01-05T11:27:44.069Z,4.00
2023-01-05T11:30:25.465Z,4.27
2023-01-05T11:32:54.097Z,4.00
2023-01-05T11:35:23.799Z,4.17
2023-01-05T11:37:52.564Z,3.90
2023-01-05T11:40:21.665Z,3.70
2023-01-05T11:42:50.287Z,3.93
2023-01-05T11:45:21.505Z,4.97
2023-01-05T11:47:53.107Z,4.50
2023-01-05T11:50:24.947Z,3.87
2023-01-05T11:52:54.788Z,4.40
2023-01-05T11:55:33.997Z,3.97
2023-01-05T11:58:17.256Z,3.97
2023-01-05T12:00:55.767Z,4.23
2023-01-05T12:03:30.665Z,3.87
2023-01-05T12:06:00.127Z,4.50
2023-01-05T12:08:32.141Z,4.63
2023-01-05T12:11:08.029Z,4.20
2023-01-05T12:13:51.507Z,4.10
2023-01-05T12:16:24.949Z,3.90
2023-01-05T12:19:11.710Z,3.83
2023-01-05T12:21:40.858Z,3.80
2023-01-05T12:24:25.809Z,4.40
2023-01-05T12:26:58.514Z,5.07
2023-01-05T12:31:06.403Z,4.33
2023-01-05T12:35:27.355Z,3.83
2023-01-05T12:38:02.735Z,3.83
2023-01-05T12:40:40.455Z,5.10
2023-01-05T12:43:10.948Z,4.43
2023-01-05T12:46:03.417Z,3.87
2023-01-05T12:48:33.474Z,3.90
2023-01-05T12:51:07.178Z,3.90
2023-01-05T12:53:42.345Z,4.33
2023-01-05T12:56:16.224Z,3.30
2023-01-05T12:58:50.617Z,3.60
2023-01-05T13:01:25.292Z,3.47
2023-01-05T13:03:57.669Z,3.60
2023-01-05T13:06:28.728Z,3.93
2023-01-05T13:08:59.485Z,4.53
2023-01-05T13:11:31.400Z,5.23
2023-01-05T13:14:01.653Z,3.77
2023-01-05T13:16:32.449Z,4.50
2023-01-05T13:19:04.360Z,3.90
2023-01-05T13:21:35.012Z,4.17
2023-01-05T13:24:04.921Z,4.37
2023-01-05T13:26:37.947Z,5.00
2023-01-05T13:29:07.042Z,4.10
2023-01-05T13:31:58.849Z,4.10
2023-01-05T13:34:47.074Z,4.20
2023-01-05T13:37:36.669Z,4.10
2023-01-05T13:40:21.079Z,4.07
2023-01-05T13:43:05.408Z,3.10
2023-01-05T13:45:50.569Z,4.37
2023-01-05T13:48:38.499Z,4.07
2023-01-05T13:51:28.417Z,4.83
2023-01-05T13:53:59.646Z,3.97
2023-01-05T13:56:30.025Z,4.93
2023-01-05T13:59:01.280Z,4.60
2023-01-05T14:01:37.006Z,4.57
2023-01-05T14:04:06.682Z,4.00
2023-01-05T14:06:37.425Z,4.47
2023-01-05T14:09:08.604Z,4.53
2023-01-05T14:11:37.743Z,4.30
2023-01-05T14:14:08.631Z,4.07
2023-01-05T14:17:03.985Z,4.07
2023-01-05T14:19:51.950Z,3.83
2023-01-05T14:22:24.874Z,3.90
2023-01-05T14:24:56.001Z,3.67
2023-01-05T14:27:25.277Z,4.20
2023-01-05T14:30:00.528Z,4.47
2023-01-05T14:32:29.880Z,4.23
2023-01-05T14:34:59.169Z,4.23
2023-01-05T14:37:29.742Z,4.63
2023-01-05T14:40:04.348Z,4.60
2023-01-05T14:42:39.707Z,4.17
2023-01-05T14:45:10.359Z,3.90
2023-01-05T14:47:41.866Z,4.57
2023-01-05T14:50:25.327Z,4.77
2023-01-05T14:52:55.281Z,4.77
2023-01-05T14:55:38.378Z,4.00
2023-01-05T14:58:12.439Z,4.33
2023-01-05T15:00:50.939Z,4.47
2023-01-05T15:03:21.783Z,4.27
2023-01-05T15:06:07.269Z,4.43
2023-01-05T15:08:56.606Z,4.67
2023-01-05T15:11:36.429Z,3.47
2023-01-05T15:14:34.651Z,4.50
2023-01-05T15:17:17.720Z,3.57
2023-01-05T15:19:51.882Z,3.97
2023-01-05T15:22:38.085Z,3.63
2023-01-05T15:25:35.757Z,3.47
2023-01-05T15:28:14.574Z,3.60
2023-01-05T15:30:52.720Z,4.43
2023-01-05T15:33:26.167Z,4.10
2023-01-05T15:35:56.707Z,4.37
2023-01-05T15:38:27.077Z,4.40
2023-01-05T15:41:00.303Z,4.70
2023-01-05T15:43:30.339Z,4.77
2023-01-05T15:45:59.369Z,3.93
2023-01-05T15:48:30.446Z,3.23
2023-01-05T15:50:59.718Z,3.73
2023-01-05T15:53:29.984Z,3.70
2023-01-05T15:55:59.068Z,3.93
2023-01-05T15:58:29.337Z,3.47
2023-01-05T16:01:07.432Z,3.27
2023-01-05T16:03:37.000Z,3.30
2023-01-05T16:06:08.107Z,3.10
2023-01-05T16:08:37.803Z,2.67
2023-01-05T16:11:08.066Z,2.90
2023-01-05T16:13:38.823Z,2.87
2023-01-05T16:16:43.032Z,2.00
2023-01-05T16:19:09.826Z,2.20
2023-01-05T16:21:40.878Z,2.37
2023-01-05T16:24:15.223Z,2.63
2023-01-05T16:26:43.898Z,1.80
2023-01-05T16:29:22.336Z,2.27
2023-01-05T16:31:55.910Z,1.97
2023-01-05T16:34:27.630Z,2.27
2023-01-05T16:37:03.136Z,1.67
2023-01-05T16:39:38.236Z,1.80
2023-01-05T16:42:25.729Z,2.20
2023-01-05T16:44:54.929Z,2.00
2023-01-05T16:47:36.713Z,1.73
2023-01-05T16:50:50.728Z,1.80
2023-01-05T16:53:19.638Z,2.00
2023-01-05T16:55:48.199Z,1.80
2023-01-05T16:58:36.013Z,1.70
2023-01-05T17:01:17.737Z,2.20
2023-01-05T17:03:48.030Z,1.80
2023-01-05T17:06:20.158Z,2.07
2023-01-05T17:08:48.802Z,1.70
2023-01-05T17:11:18.604Z,1.83
2023-01-05T17:13:48.924Z,1.77
2023-01-05T17:16:18.156Z,2.30
2023-01-05T17:18:48.373Z,2.00
2023-01-05T17:21:18.273Z,2.27
2023-01-05T17:23:47.737Z,1.90
2023-01-05T17:26:17.921Z,2.30
2023-01-05T17:28:46.551Z,2.10
2023-01-05T17:31:15.395Z,2.23
2023-01-05T17:33:44.002Z,2.40
2023-01-05T17:38:48.294Z,2.60
2023-01-05T17:41:17.222Z,2.30
2023-01-05T17:43:46.129Z,2.30
2023-01-05T17:46:17.915Z,2.63
2023-01-05T17:48:46.533Z,2.30
2023-01-05T17:51:16.490Z,2.20
2023-01-05T17:53:45.085Z,2.83
2023-01-05T17:56:13.840Z,2.33
2023-01-05T17:58:42.417Z,2.80
2023-01-05T18:01:10.980Z,3.33
2023-01-05T18:03:39.562Z,4.10
2023-01-05T18:06:09.220Z,3.40
2023-01-05T18:08:39.224Z,2.90
2023-01-05T18:11:08.515Z,3.27
2023-01-05T18:13:37.133Z,2.60
2023-01-05T18:16:08.063Z,2.70
2023-01-05T18:18:36.609Z,2.30
2023-01-05T18:21:06.055Z,2.40
2023-01-05T18:23:34.645Z,2.50
2023-01-05T18:26:05.119Z,2.03
2023-01-05T18:28:33.705Z,2.00
2023-01-05T18:31:02.293Z,2.10
2023-01-05T18:33:30.894Z,1.90
2023-01-05T18:35:59.430Z,1.70
2023-01-05T18:38:28.084Z,1.80
2023-01-05T18:40:56.635Z,1.93
2023-01-05T18:43:26.571Z,1.47
2023-01-05T18:45:56.256Z,1.60
2023-01-05T18:48:24.850Z,1.50
2023-01-05T18:50:53.503Z,1.50
2023-01-05T18:53:22.556Z,1.40
2023-01-05T18:55:51.489Z,1.40
2023-01-05T18:58:20.128Z,1.60
2023-01-05T19:00:50.161Z,1.50
2023-01-05T19:03:18.819Z,1.30
2023-01-05T19:05:47.407Z,1.27
2023-01-05T19:08:15.985Z,1.50
2023-01-05T19:10:44.602Z,1.60
2023-01-05T19:13:13.148Z,1.50
2023-01-05T19:15:42.491Z,1.53
2023-01-05T19:18:13.244Z,1.60
2023-01-05T19:20:41.804Z,1.73
2023-01-05T19:23:10.389Z,1.93
2023-01-05T19:25:39.018Z,2.30
2023-01-05T19:28:07.681Z,1.93
2023-01-05T19:30:36.306Z,2.10
2023-01-05T19:33:05.106Z,2.20
2023-01-05T19:35:35.033Z,2.17
2023-01-05T19:38:03.663Z,2.50
2023-01-05T19:40:32.303Z,1.70
2023-01-05T19:43:00.937Z,2.03
2023-01-05T19:45:30.327Z,1.95
2023-01-05T19:47:59.064Z,2.10
2023-01-05T19:50:27.687Z,2.10
2023-01-05T19:52:57.582Z,2.00
2023-01-05T19:55:26.114Z,1.80
2023-01-05T19:57:54.651Z,1.50
2023-01-05T20:00:23.342Z,1.80
2023-01-05T20:02:52.002Z,1.90
2023-01-05T20:05:20.938Z,1.40
2023-01-05T20:07:49.736Z,1.30
2023-01-05T20:10:20.131Z,1.30
2023-01-05T20:12:48.741Z,1.20
2023-01-05T20:15:17.312Z,1.30
2023-01-05T20:17:45.913Z,1.47
2023-01-05T20:20:14.921Z,1.20
2023-01-05T20:22:43.491Z,1.30
2023-01-05T20:25:12.139Z,1.30
2023-01-05T20:27:42.072Z,1.47
2023-01-05T20:30:11.215Z,1.97
2023-01-05T20:32:39.751Z,1.90
2023-01-05T20:35:08.703Z,2.03
2023-01-05T20:37:37.252Z,1.93
2023-01-05T20:40:06.291Z,1.90
2023-01-05T20:42:34.993Z,2.50
2023-01-05T20:45:05.086Z,2.97
2023-01-05T20:47:43.261Z,2.63
2023-01-05T20:50:15.551Z,2.50
2023-01-05T20:52:44.215Z,2.20
2023-01-05T20:55:12.849Z,2.30
2023-01-05T20:57:41.464Z,2.17
2023-01-05T21:00:13.884Z,2.27
2023-01-05T21:02:42.466Z,2.10
2023-01-05T21:05:12.048Z,1.93
2023-01-05T21:07:40.612Z,1.70
2023-01-05T21:10:09.567Z,1.67
2023-01-05T21:12:38.121Z,1.80
2023-01-05T21:15:07.195Z,1.63
2023-01-05T21:17:37.093Z,1.70
2023-01-05T21:20:06.395Z,1.77
2023-01-05T21:22:35.130Z,1.70
2023-01-05T21:25:03.739Z,2.00
2023-01-05T21:27:32.332Z,1.77
2023-01-05T21:30:00.890Z,2.00
2023-01-05T21:32:29.429Z,2.00
2023-01-05T21:34:59.322Z,2.00
2023-01-05T21:37:27.928Z,2.10
2023-01-05T21:39:56.508Z,2.00
2023-01-05T21:42:45.150Z,2.40
2023-01-05T21:45:14.545Z,2.43
2023-01-05T21:47:43.142Z,2.70
2023-01-05T21:50:35.001Z,2.27
2023-01-05T21:53:21.889Z,2.03
2023-01-05T21:56:08.235Z,2.37
2023-01-05T21:58:36.781Z,2.50
2023-01-05T22:01:05.512Z,2.40
2023-01-05T22:03:34.180Z,2.20
2023-01-05T22:06:04.126Z,2.40
2023-01-05T22:08:32.804Z,2.33
2023-01-05T22:11:02.711Z,1.93
2023-01-05T22:13:31.268Z,1.60
2023-01-05T22:16:00.038Z,1.70
2023-01-05T22:18:28.632Z,1.30
2023-01-05T22:20:58.927Z,1.20
2023-01-05T22:23:29.443Z,1.10
2023-01-05T22:26:01.325Z,1.47
2023-01-05T22:28:30.070Z,1.10
2023-01-05T22:31:05.408Z,1.30
2023-01-05T22:33:34.351Z,1.63
2023-01-05T22:36:03.392Z,1.30
2023-01-05T22:38:35.263Z,1.37
2023-01-05T22:41:04.352Z,1.30
2023-01-05T22:43:33.141Z,1.40
2023-01-05T22:46:05.471Z,1.40
2023-01-05T22:48:34.607Z,1.30
2023-01-05T22:51:06.633Z,1.40
2023-01-05T22:53:37.196Z,1.37
2023-01-05T22:56:06.364Z,1.50
2023-01-05T22:58:34.969Z,1.40
2023-01-05T23:01:07.761Z,1.30
2023-01-05T23:03:36.379Z,1.50
2023-01-05T23:06:05.124Z,1.20
2023-01-05T23:08:35.194Z,1.47
2023-01-05T23:11:07.908Z,1.30
2023-01-05T23:13:36.964Z,1.10
2023-01-05T23:16:06.318Z,1.07
2023-01-05T23:18:36.025Z,1.30
2023-01-05T23:21:05.784Z,1.10
2023-01-05T23:23:34.563Z,0.90
2023-01-05T23:26:04.494Z,1.00
2023-01-05T23:28:33.407Z,1.00
2023-01-05T23:31:02.131Z,1.10
2023-01-05T23:33:31.762Z,1.20
2023-01-05T23:36:00.421Z,1.00
2023-01-05T23:38:29.551Z,1.20
2023-01-05T23:40:58.861Z,1.30
2023-01-05T23:43:29.751Z,1.50
2023-01-05T23:46:02.103Z,1.10
2023-01-05T23:48:30.943Z,1.10
2023-01-05T23:50:59.658Z,1.63
2023-01-05T23:53:28.223Z,1.10
2023-01-05T23:56:05.806Z,1.20
2023-01-05T23:58:35.703Z,1.47
